Flight Track Log - Related Links

Times and Time Zones

All times are in EDT time to prevent confusion due to time zone crossing. See the AAL1071 flight status page for this flight to view local times or setup timezone preferences in your user account.

Time Position Orientation Groundspeed Altitude Reporting Facility
EDT Latitude Longitude Course Direction KTS MPH feet Rate Location/Type
Wed 09:53:00 AM 25.6852 -79.9167 104° East  Level FlightAware Approximate
Wed 09:54:00 AM 25.6564 -79.7923 105° East  Level FlightAware Approximate
Wed 09:55:00 AM 25.6333 -79.6673 90° East  Level FlightAware Approximate
Wed 09:56:00 AM 25.6094 -79.5421 104° East  Level FlightAware Approximate
Wed 09:57:00 AM 25.5796 -79.4181 105° East  Level FlightAware Approximate
Wed 09:58:00 AM 25.5500 -79.2942 90° East  Level FlightAware Approximate
Wed 09:59:00 AM 25.5185 -79.1721 110° East  Level FlightAware Approximate
Wed 10:00:00 AM 25.4881 -79.0483 104° East  Level FlightAware Approximate
Wed 10:01:00 AM 25.4594 -78.9241 104° East  Level FlightAware Approximate
Wed 10:02:00 AM 25.4331 -78.7992 105° East  Level FlightAware Approximate
Wed 10:03:00 AM 25.4023 -78.6757 105° East  Level FlightAware Approximate
Wed 10:04:00 AM 25.3833 -78.5499 105° East  Level FlightAware Approximate
Wed 10:05:00 AM 25.3542 -78.4258 105° East  Level FlightAware Approximate
Wed 10:06:00 AM 25.3250 -78.3019 105° East  Level FlightAware Approximate
Wed 10:07:00 AM 25.2975 -78.1776 115° Southeast  Level FlightAware Approximate
Wed 10:08:00 AM 25.2480 -78.0619 115° Southeast  Level FlightAware Approximate
Wed 10:09:00 AM 25.1986 -77.9461 112° Southeast  Level FlightAware Approximate
Wed 10:10:00 AM 25.1551 -77.8264 112° Southeast  Level FlightAware Approximate
Wed 10:11:00 AM 25.1097 -77.7075 114° Southeast  Level FlightAware Approximate
Wed 10:12:00 AM 25.0680 -77.5871 110° East  Level FlightAware Approximate
Wed 10:13:00 AM 25.0276 -77.4661 110° East  Level FlightAware Approximate
Wed 10:14:00 AM 24.9670 -77.3571 126° Southeast  Level FlightAware Approximate
Wed 10:15:00 AM 24.8988 -77.2525 126° Southeast  Level FlightAware Approximate
Wed 10:16:00 AM 24.8305 -77.1481 126° Southeast  Level FlightAware Approximate
Wed 10:17:00 AM 24.7621 -77.0438 126° Southeast  Level FlightAware Approximate
Wed 10:18:00 AM 24.6961 -76.9378 123° Southeast  Level FlightAware Approximate
Wed 10:19:00 AM 24.6315 -76.8307 126° Southeast  Level FlightAware Approximate
Wed 10:20:00 AM 24.5620 -76.7274 126° Southeast  Level FlightAware Approximate
Wed 10:21:00 AM 24.4925 -76.6243 127° Southeast  Level FlightAware Approximate
Wed 10:22:00 AM 24.4228 -76.5213 127° Southeast  Level FlightAware Approximate
Wed 10:23:00 AM 24.3531 -76.4184 127° Southeast  Level FlightAware Approximate
Wed 10:24:00 AM 24.2833 -76.3157 127° Southeast  Level FlightAware Approximate
Wed 10:25:00 AM 24.2134 -76.2131 127° Southeast  Level FlightAware Approximate
Wed 10:26:00 AM 24.1434 -76.1106 127° Southeast  Level FlightAware Approximate
Wed 10:27:00 AM 24.0733 -76.0082 127° Southeast  Level FlightAware Approximate
Wed 10:28:00 AM 24.0038 -75.9055 126° Southeast  Level FlightAware Approximate
Wed 10:29:00 AM 23.9351 -75.8021 126° Southeast  Level FlightAware Approximate
Wed 10:30:00 AM 23.8664 -75.6988 126° Southeast  Level FlightAware Approximate
Wed 10:31:00 AM 23.7976 -75.5957 126° Southeast  Level FlightAware Approximate
Wed 10:32:00 AM 23.7287 -75.4926 126° Southeast  Level FlightAware Approximate
Wed 10:33:00 AM 23.6598 -75.3896 126° Southeast  Level FlightAware Approximate
Wed 10:34:00 AM 23.5911 -75.2865 126° Southeast  Level FlightAware Approximate
Wed 10:35:00 AM 23.5307 -75.1778 119° Southeast  Level FlightAware Approximate
Wed 10:36:00 AM 23.4748 -75.0659 119° Southeast  Level FlightAware Approximate
Wed 10:37:00 AM 23.4189 -74.9542 119° Southeast  Level FlightAware Approximate
Wed 10:38:00 AM 23.3630 -74.8424 118° Southeast  Level FlightAware Approximate
Wed 10:39:00 AM 23.3073 -74.7307 118° Southeast  Level FlightAware Approximate
Wed 10:40:00 AM 23.2515 -74.6190 119° Southeast  Level FlightAware Approximate
Wed 10:41:00 AM 23.1956 -74.5074 119° Southeast  Level FlightAware Approximate
Wed 10:42:00 AM 23.1396 -74.3959 119° Southeast  Level FlightAware Approximate
Wed 10:43:00 AM 23.0825 -74.2851 119° Southeast  Level FlightAware Approximate
Wed 10:44:00 AM 23.0252 -74.1745 119° Southeast  Level FlightAware Approximate
Wed 10:45:00 AM 22.9678 -74.0640 119° Southeast  Level FlightAware Approximate
Wed 10:46:00 AM 22.9104 -73.9536 119° Southeast  Level FlightAware Approximate
Wed 10:47:00 AM 22.8528 -73.8432 119° Southeast  Level FlightAware Approximate
Wed 10:48:00 AM 22.7952 -73.7330 120° Southeast  Level FlightAware Approximate
Wed 10:49:00 AM 22.7375 -73.6229 120° Southeast  Level FlightAware Approximate
Wed 10:50:00 AM 22.6797 -73.5129 120° Southeast  Level FlightAware Approximate
Wed 10:51:00 AM 22.6219 -73.4029 120° Southeast  Level FlightAware Approximate
Wed 10:52:00 AM 22.5640 -73.2931 120° Southeast  Level FlightAware Approximate
Wed 10:53:00 AM 22.5060 -73.1833 120° Southeast  Level FlightAware Approximate
Wed 10:54:00 AM 22.4479 -73.0736 120° Southeast  Level FlightAware Approximate
Wed 10:55:00 AM 22.3899 -72.9640 120° Southeast  Level FlightAware Approximate
Wed 10:56:00 AM 22.3322 -72.8542 120° Southeast  Level FlightAware Approximate
Wed 10:57:00 AM 22.2744 -72.7445 120° Southeast  Level FlightAware Approximate
Wed 10:58:00 AM 22.2173 -72.6345 118° Southeast  Level FlightAware Approximate
Wed 10:59:00 AM 22.1618 -72.5235 118° Southeast  Level FlightAware Approximate
Wed 11:00:00 AM 22.1063 -72.4125 118° Southeast  Level FlightAware Approximate
Wed 11:01:00 AM 22.0508 -72.3016 118° Southeast  Level FlightAware Approximate
Wed 11:02:00 AM 21.9954 -72.1907 118° Southeast  Level FlightAware Approximate
Wed 11:03:00 AM 21.9386 -72.0807 120° Southeast  Level FlightAware Approximate
Wed 11:04:00 AM 21.8804 -71.9715 120° Southeast  Level FlightAware Approximate
Wed 11:05:00 AM 21.8228 -71.8621 118° Southeast  Level FlightAware Approximate
Wed 11:06:00 AM 21.7674 -71.7513 118° Southeast  Level FlightAware Approximate
Wed 11:07:00 AM 21.7120 -71.6406 118° Southeast  Level FlightAware Approximate
Wed 11:08:00 AM 21.6545 -71.5313 120° Southeast  Level FlightAware Approximate
Wed 11:09:00 AM 21.5959 -71.4213 120° Southeast  Level FlightAware Approximate
Wed 11:10:00 AM 21.5357 -71.3124 122° Southeast  Level FlightAware Approximate
Wed 11:11:00 AM 21.4741 -71.2045 122° Southeast  Level FlightAware Approximate
Wed 11:12:00 AM 21.4041 -71.1040 137° Southeast  Level FlightAware Approximate
Wed 11:13:00 AM 21.3179 -71.0177 137° Southeast  Level FlightAware Approximate
Wed 11:14:00 AM 21.2317 -70.9315 137° Southeast  Level FlightAware Approximate
Wed 11:15:00 AM 21.1449 -70.8461 139° Southeast  Level FlightAware Approximate
Wed 11:16:00 AM 21.0564 -70.7627 139° Southeast  Level FlightAware Approximate
Wed 11:17:00 AM 20.9679 -70.6794 139° Southeast  Level FlightAware Approximate
Wed 11:18:00 AM 20.8794 -70.5961 137° Southeast  Level FlightAware Approximate
Wed 11:19:00 AM 20.7934 -70.5100 137° Southeast  Level FlightAware Approximate
Wed 11:20:00 AM 20.7073 -70.4239 137° Southeast  Level FlightAware Approximate
Wed 11:21:00 AM 20.6213 -70.3379 137° Southeast  Level FlightAware Approximate
Wed 11:22:00 AM 20.5353 -70.2519 137° Southeast  Level FlightAware Approximate
Wed 11:23:00 AM 20.4493 -70.1659 137° Southeast  Level FlightAware Approximate
Wed 11:24:00 AM 20.3633 -70.0800 137° Southeast  Level FlightAware Approximate
Wed 11:25:00 AM 20.2757 -69.9959 138° Southeast  Level FlightAware Approximate
Wed 11:26:00 AM 20.1878 -69.9124 138° Southeast  Level FlightAware Approximate
Wed 11:27:00 AM 20.0999 -69.8289 138° Southeast  Level FlightAware Approximate
Wed 11:28:00 AM 20.0120 -69.7453 137° Southeast  Level FlightAware Approximate
Wed 11:29:00 AM 19.9330 -69.6664 137° Southeast  Level FlightAware Approximate
Wed 11:30:00 AM 19.8470 -69.5808 141° Southeast  Level FlightAware Approximate
Wed 11:31:00 AM 19.7553 -69.5022 141° Southeast  Level FlightAware Approximate
Wed 11:32:00 AM 19.6707 -69.4153 134° Southeast  Level FlightAware Approximate
Wed 11:33:00 AM 19.5882 -69.3260 134° Southeast  Level FlightAware Approximate
Wed 11:34:00 AM 19.5018 -69.2414 143° Southeast  Level FlightAware Approximate
Wed 11:35:00 AM 19.4115 -69.1614 137° Southeast  Level FlightAware Approximate
Wed 11:36:00 AM 19.3259 -69.0757 137° Southeast  Level FlightAware Approximate
Wed 11:37:00 AM 19.2402 -68.9900 137° Southeast  Level FlightAware Approximate
Wed 11:38:00 AM 19.1545 -68.9044 137° Southeast  Level FlightAware Approximate
Wed 11:39:00 AM 19.0688 -68.8188 137° Southeast  Level FlightAware Approximate
Wed 11:40:00 AM 18.9808 -68.7360 140° Southeast  Level FlightAware Approximate
Wed 11:41:00 AM 18.8911 -68.6553 140° Southeast  Level FlightAware Approximate
Wed 11:42:00 AM 18.8044 -68.5710 137° Southeast  Level FlightAware Approximate
Wed 11:43:00 AM 18.7188 -68.4855 137° Southeast  Level FlightAware Approximate
Wed 11:44:00 AM 18.6271 -68.4079 145° Southeast  Level FlightAware Approximate
Wed 11:45:00 AM 18.5674 -68.3634 128° Southeast  Level Estimated
Wed 11:46:00 AM 18.5674 -68.3634 128° Southeast  Level Estimated
Wed 11:47:00 AM 18.5674 -68.3634 128° Southeast  Level Estimated
Wed 11:48:00 AM 18.5674 -68.3634 128° Southeast  Level Estimated
Wed 11:49:00 AM 18.5674 -68.3634 128° Southeast  Level Estimated
Wed 11:50:00 AM 18.5674 -68.3634 128° Southeast  Level Estimated

Login

Don't have an account? Register now (free) for customized features, flight alerts, and more!